PWSweather.com
Personal Weather Stations
Station Observations
SBERGENWX
Wood Ridge, NJ 07075

Wood Ridge, NJ 07075

Lat: 40.851667, Lon: -74.088131

Elevation: 177

Station Type: Davis Vantage Vue

http://201weather.com/

High Low Average
Temperature 41.0°F5.0°C 18.5°F-7.5°C 28.8°F-1.8°C
Dew Point 38.3°F3.5°C 9.7°F-12.4°C 23.6°F-4.7°C
Winds 9.2 mph 14.8 kmh Calm Calm 1.0 mph S1.6 kmh S
Wind Gusts 26.5 mph42.6 kmh -- 3.0 mph4.8 kmh
Humidity 94% 60% 81%
Pressure 30.05 in1017.6 mb 29.76 in1007.8 mb -
Precipitation 0.26 in6.6 mm - -
Hour Temp Dew Point Humidity Winds Wind Gusts Pressure Precip Precip Rate Daily Precip Total
12:00 AM 21.8°F-5.7°C 8.1°F-13.3°C 55% Calm Calm -- 30.05 in1017.6 mb - 0.00 in0.0 mm 0.00 in0.0 mm
12:15 AM 21.9°F-5.6°C 8.6°F-13.0°C 56% Calm Calm 2.3 mph3.7 kmh 30.05 in1017.6 mb - 0.00 in0.0 mm 0.00 in0.0 mm
12:30 AM 21.7°F-5.7°C 8.8°F-12.9°C 57% Calm Calm -- 30.05 in1017.6 mb - 0.00 in0.0 mm 0.00 in0.0 mm
12:45 AM 21.5°F-5.8°C 9.0°F-12.8°C 58% Calm Calm 3.5 mph5.6 kmh 30.05 in1017.6 mb - 0.00 in0.0 mm 0.00 in0.0 mm
01:00 AM 21.4°F-5.9°C 9.7°F-12.4°C 60% Calm Calm 1.2 mph1.9 kmh 30.04 in1017.3 mb - 0.00 in0.0 mm 0.00 in0.0 mm
01:15 AM 21.2°F-6.0°C 10.2°F-12.1°C 62% Calm Calm -- 30.04 in1017.3 mb - 0.00 in0.0 mm 0.00 in0.0 mm
01:30 AM 21.1°F-6.1°C 10.5°F-11.9°C 63% Calm Calm 1.2 mph1.9 kmh 30.04 in1017.3 mb - 0.00 in0.0 mm 0.00 in0.0 mm
01:45 AM 20.8°F-6.2°C 10.6°F-11.9°C 64% Calm Calm -- 30.03 in1016.9 mb - 0.00 in0.0 mm 0.00 in0.0 mm
02:00 AM 20.6°F-6.3°C 10.7°F-11.8°C 65% Calm Calm 1.2 mph1.9 kmh 30.02 in1016.6 mb - 0.00 in0.0 mm 0.00 in0.0 mm
02:15 AM 20.3°F-6.5°C 10.7°F-11.8°C 66% Calm Calm -- 30.03 in1016.9 mb - 0.00 in0.0 mm 0.00 in0.0 mm
02:30 AM 20.1°F-6.6°C 10.9°F-11.7°C 67% Calm Calm -- 30.04 in1017.3 mb - 0.00 in0.0 mm 0.00 in0.0 mm
02:45 AM 20.0°F-6.7°C 11.1°F-11.6°C 68% Calm Calm -- 30.05 in1017.6 mb - 0.00 in0.0 mm 0.00 in0.0 mm
03:00 AM 19.8°F-6.8°C 10.9°F-11.7°C 68% Calm Calm -- 30.05 in1017.6 mb - 0.00 in0.0 mm 0.00 in0.0 mm
03:15 AM 19.7°F-6.8°C 11.2°F-11.6°C 69% Calm Calm 1.2 mph1.9 kmh 30.05 in1017.6 mb - 0.00 in0.0 mm 0.00 in0.0 mm
03:30 AM 19.6°F-6.9°C 10.4°F-12.0°C 67% Calm Calm -- 30.05 in1017.6 mb - 0.00 in0.0 mm 0.00 in0.0 mm
03:45 AM 19.6°F-6.9°C 10.4°F-12.0°C 67% Calm Calm -- 30.05 in1017.6 mb - 0.00 in0.0 mm 0.00 in0.0 mm
04:00 AM 19.6°F-6.9°C 10.4°F-12.0°C 67% Calm Calm 1.2 mph1.9 kmh 30.04 in1017.3 mb - 0.00 in0.0 mm 0.00 in0.0 mm
04:15 AM 19.4°F-7.0°C 10.6°F-11.9°C 68% Calm Calm -- 30.03 in1016.9 mb - 0.00 in0.0 mm 0.00 in0.0 mm
04:30 AM 19.4°F-7.0°C 10.6°F-11.9°C 68% Calm Calm -- 30.02 in1016.6 mb - 0.00 in0.0 mm 0.00 in0.0 mm
04:45 AM 19.3°F-7.1°C 10.8°F-11.8°C 69% Calm Calm -- 30.02 in1016.6 mb - 0.00 in0.0 mm 0.00 in0.0 mm
05:00 AM 18.5°F-7.5°C 10.0°F-12.2°C 69% Calm Calm -- 30.01 in1016.3 mb - 0.00 in0.0 mm 0.00 in0.0 mm
05:15 AM 18.5°F-7.5°C 10.0°F-12.2°C 69% Calm Calm -- 30.01 in1016.3 mb - 0.00 in0.0 mm 0.00 in0.0 mm
05:30 AM 18.5°F-7.5°C 10.0°F-12.2°C 69% Calm Calm -- 30.01 in1016.3 mb - 0.00 in0.0 mm 0.00 in0.0 mm
05:45 AM 18.5°F-7.5°C 10.0°F-12.2°C 69% Calm Calm -- 30.02 in1016.6 mb - 0.00 in0.0 mm 0.00 in0.0 mm
06:00 AM 18.5°F-7.5°C 10.0°F-12.2°C 69% Calm Calm -- 30.01 in1016.3 mb - 0.00 in0.0 mm 0.00 in0.0 mm
06:15 AM 18.5°F-7.5°C 10.0°F-12.2°C 69% Calm Calm -- 30.01 in1016.3 mb - 0.00 in0.0 mm 0.00 in0.0 mm
06:30 AM 18.5°F-7.5°C 10.0°F-12.2°C 69% Calm Calm -- 30.01 in1016.3 mb - 0.00 in0.0 mm 0.00 in0.0 mm
06:45 AM 18.5°F-7.5°C 10.0°F-12.2°C 69% Calm Calm -- 30.01 in1016.3 mb - 0.00 in0.0 mm 0.00 in0.0 mm
07:00 AM 18.5°F-7.5°C 10.0°F-12.2°C 69% Calm Calm -- 30.01 in1016.3 mb - 0.00 in0.0 mm 0.00 in0.0 mm
07:15 AM 18.5°F-7.5°C 10.0°F-12.2°C 69% Calm Calm -- 30.01 in1016.3 mb - 0.00 in0.0 mm 0.00 in0.0 mm
07:30 AM 18.5°F-7.5°C 10.0°F-12.2°C 69% Calm Calm -- 30.00 in1015.9 mb - 0.00 in0.0 mm 0.00 in0.0 mm
07:45 AM 18.5°F-7.5°C 10.0°F-12.2°C 69% Calm Calm -- 30.00 in1015.9 mb - 0.00 in0.0 mm 0.00 in0.0 mm
08:00 AM 18.5°F-7.5°C 10.0°F-12.2°C 69% Calm Calm -- 30.00 in1015.9 mb - 0.00 in0.0 mm 0.00 in0.0 mm
08:15 AM 18.5°F-7.5°C 10.0°F-12.2°C 69% Calm Calm -- 30.01 in1016.3 mb - 0.00 in0.0 mm 0.00 in0.0 mm
08:30 AM 18.5°F-7.5°C 10.0°F-12.2°C 69% Calm Calm -- 30.01 in1016.3 mb - 0.00 in0.0 mm 0.00 in0.0 mm
08:45 AM 18.5°F-7.5°C 10.0°F-12.2°C 69% Calm Calm -- 30.01 in1016.3 mb - 0.00 in0.0 mm 0.00 in0.0 mm
09:00 AM 18.5°F-7.5°C 10.0°F-12.2°C 69% Calm Calm -- 30.00 in1015.9 mb - 0.00 in0.0 mm 0.00 in0.0 mm
09:15 AM 18.5°F-7.5°C 10.0°F-12.2°C 69% Calm Calm -- 30.00 in1015.9 mb - 0.00 in0.0 mm 0.00 in0.0 mm
09:30 AM 18.5°F-7.5°C 10.0°F-12.2°C 69% Calm Calm -- 30.01 in1016.3 mb - 0.00 in0.0 mm 0.00 in0.0 mm
09:45 AM 18.5°F-7.5°C 10.0°F-12.2°C 69% Calm Calm -- 30.01 in1016.3 mb - 0.00 in0.0 mm 0.00 in0.0 mm
10:00 AM 18.5°F-7.5°C 10.0°F-12.2°C 69% Calm Calm -- 30.01 in1016.3 mb - 0.00 in0.0 mm 0.00 in0.0 mm
10:15 AM 18.5°F-7.5°C 10.0°F-12.2°C 69% Calm Calm -- 30.01 in1016.3 mb - 0.00 in0.0 mm 0.00 in0.0 mm
10:30 AM 25.4°F-3.7°C 19.5°F-6.9°C 78% Calm Calm -- 30.01 in1016.3 mb - 0.00 in0.0 mm 0.00 in0.0 mm
10:45 AM 26.1°F-3.3°C 20.5°F-6.4°C 79% Calm Calm -- 30.00 in1015.9 mb - 0.00 in0.0 mm 0.00 in0.0 mm
11:00 AM 27.0°F-2.8°C 21.6°F-5.8°C 80% Calm Calm -- 30.00 in1015.9 mb - 0.00 in0.0 mm 0.00 in0.0 mm
11:15 AM 27.7°F-2.4°C 22.3°F-5.4°C 80% Calm Calm -- 30.00 in1015.9 mb - 0.00 in0.0 mm 0.00 in0.0 mm
11:30 AM 28.4°F-2.0°C 23.1°F-4.9°C 80% Calm Calm -- 29.99 in1015.6 mb - 0.00 in0.0 mm 0.00 in0.0 mm
11:45 AM 29.2°F-1.6°C 23.8°F-4.6°C 80% Calm Calm -- 29.98 in1015.2 mb - 0.00 in0.0 mm 0.00 in0.0 mm
12:00 PM 29.8°F-1.2°C 24.7°F-4.1°C 81% Calm Calm -- 29.98 in1015.2 mb - 0.00 in0.0 mm 0.00 in0.0 mm
12:15 PM 30.2°F-1.0°C 25.9°F-3.4°C 84% Calm Calm -- 29.96 in1014.6 mb - 0.00 in0.0 mm 0.00 in0.0 mm
12:30 PM 30.4°F-0.9°C 26.7°F-2.9°C 86% Calm Calm -- 29.95 in1014.2 mb - 0.00 in0.0 mm 0.00 in0.0 mm
12:45 PM 30.5°F-0.8°C 27.4°F-2.6°C 88% Calm Calm -- 29.94 in1013.9 mb - 0.00 in0.0 mm 0.00 in0.0 mm
01:00 PM 30.7°F-0.7°C 27.8°F-2.3°C 89% Calm Calm -- 29.93 in1013.5 mb - 0.00 in0.0 mm 0.00 in0.0 mm
01:15 PM 31.2°F-0.4°C 28.6°F-1.9°C 90% Calm Calm -- 29.92 in1013.2 mb - 0.00 in0.0 mm 0.00 in0.0 mm
01:30 PM 31.2°F-0.4°C 28.6°F-1.9°C 90% Calm Calm -- 29.91 in1012.9 mb - 0.00 in0.0 mm 0.00 in0.0 mm
01:45 PM 31.5°F-0.3°C 29.2°F-1.6°C 91% Calm Calm -- 29.90 in1012.5 mb - 0.00 in0.0 mm 0.00 in0.0 mm
02:00 PM 32.1°F0.1°C 30.0°F-1.1°C 92% Calm Calm -- 29.89 in1012.2 mb - 0.01 in0.3 mm 0.01 in0.3 mm
02:15 PM 33.1°F0.6°C 31.0°F-0.6°C 92% Calm Calm -- 29.88 in1011.9 mb - 0.01 in0.3 mm 0.01 in0.3 mm
02:30 PM 33.2°F0.7°C 31.1°F-0.5°C 92% Calm Calm -- 29.87 in1011.5 mb - 0.01 in0.3 mm 0.01 in0.3 mm
02:45 PM 33.2°F0.7°C 31.1°F-0.5°C 92% Calm Calm -- 29.86 in1011.2 mb - 0.01 in0.3 mm 0.01 in0.3 mm
03:00 PM 33.4°F0.8°C 31.3°F-0.4°C 92% Calm Calm -- 29.85 in1010.8 mb - 0.00 in0.0 mm 0.01 in0.3 mm
03:15 PM 34.2°F1.2°C 32.3°F0.2°C 93% Calm Calm 1.2 mph1.9 kmh 29.84 in1010.5 mb - 0.00 in0.0 mm 0.01 in0.3 mm
03:30 PM 38.9°F3.8°C 35.9°F2.2°C 89% 3.5 mph SE5.6 kmh SE 9.2 mph14.8 kmh 29.83 in1010.2 mb - 0.00 in0.0 mm 0.01 in0.3 mm
03:45 PM 39.9°F4.4°C 36.1°F2.3°C 86% 6.9 mph SE11.1 kmh SE 9.2 mph14.8 kmh 29.83 in1010.2 mb - 0.00 in0.0 mm 0.01 in0.3 mm
04:00 PM 40.1°F4.5°C 36.2°F2.3°C 86% 6.9 mph SSE11.1 kmh SSE 9.2 mph14.8 kmh 29.83 in1010.2 mb - 0.00 in0.0 mm 0.01 in0.3 mm
04:15 PM 40.3°F4.6°C 36.1°F2.3°C 85% 9.2 mph SE14.8 kmh SE 11.5 mph18.5 kmh 29.82 in1009.8 mb - 0.00 in0.0 mm 0.01 in0.3 mm
04:30 PM 40.5°F4.7°C 36.6°F2.6°C 86% 6.9 mph SE11.1 kmh SE 11.5 mph18.5 kmh 29.82 in1009.8 mb - 0.00 in0.0 mm 0.01 in0.3 mm
04:45 PM 40.6°F4.8°C 36.7°F2.6°C 86% 5.8 mph SSE9.3 kmh SSE 11.5 mph18.5 kmh 29.80 in1009.1 mb - 0.00 in0.0 mm 0.01 in0.3 mm
05:00 PM 40.6°F4.8°C 37.0°F2.8°C 87% 6.9 mph SE11.1 kmh SE 12.7 mph20.4 kmh 29.80 in1009.1 mb - 0.01 in0.3 mm 0.02 in0.5 mm
05:15 PM 40.6°F4.8°C 37.0°F2.8°C 87% 5.8 mph SE9.3 kmh SE 9.2 mph14.8 kmh 29.80 in1009.1 mb - 0.01 in0.3 mm 0.02 in0.5 mm
05:30 PM 40.9°F4.9°C 37.3°F2.9°C 87% 5.8 mph SSE9.3 kmh SSE 10.4 mph16.7 kmh 29.79 in1008.8 mb - 0.01 in0.3 mm 0.02 in0.5 mm
05:45 PM 40.9°F4.9°C 37.6°F3.1°C 88% 8.1 mph SE13.0 kmh SE 13.8 mph22.2 kmh 29.79 in1008.8 mb - 0.01 in0.3 mm 0.02 in0.5 mm
06:00 PM 40.8°F4.9°C 37.8°F3.2°C 89% 5.8 mph SE9.3 kmh SE 5.8 mph9.3 kmh 29.78 in1008.5 mb - 0.01 in0.3 mm 0.03 in0.8 mm
06:15 PM 40.9°F4.9°C 37.6°F3.1°C 88% 9.2 mph SE14.8 kmh SE 26.5 mph42.6 kmh 29.77 in1008.1 mb - 0.01 in0.3 mm 0.03 in0.8 mm
06:30 PM 41.0°F5.0°C 37.7°F3.2°C 88% 8.1 mph SSE13.0 kmh SSE 9.2 mph14.8 kmh 29.76 in1007.8 mb - 0.02 in0.5 mm 0.04 in1.0 mm
06:45 PM 41.0°F5.0°C 38.0°F3.3°C 89% 3.5 mph S5.6 kmh S 8.1 mph13.0 kmh 29.76 in1007.8 mb - 0.03 in0.8 mm 0.05 in1.3 mm
07:00 PM 40.9°F4.9°C 38.1°F3.4°C 90% 1.2 mph SSW1.9 kmh SSW 2.3 mph3.7 kmh 29.77 in1008.1 mb - 0.03 in0.8 mm 0.06 in1.5 mm
07:15 PM 40.7°F4.8°C 38.3°F3.5°C 91% 2.3 mph SW3.7 kmh SW 3.5 mph5.6 kmh 29.78 in1008.5 mb - 0.05 in1.3 mm 0.08 in2.0 mm
07:30 PM 40.4°F4.7°C 38.0°F3.3°C 91% 3.5 mph SW5.6 kmh SW 4.6 mph7.4 kmh 29.79 in1008.8 mb - 0.08 in2.0 mm 0.12 in3.0 mm
07:45 PM 40.4°F4.7°C 38.3°F3.5°C 92% 3.5 mph S5.6 kmh S 5.8 mph9.3 kmh 29.79 in1008.8 mb - 0.10 in2.5 mm 0.15 in3.8 mm
08:00 PM 40.2°F4.6°C 38.3°F3.5°C 93% Calm Calm -- 29.80 in1009.1 mb - 0.12 in3.0 mm 0.18 in4.6 mm
08:15 PM 39.7°F4.3°C 37.9°F3.3°C 93% 3.5 mph W5.6 kmh W 6.9 mph11.1 kmh 29.81 in1009.5 mb - 0.13 in3.3 mm 0.21 in5.3 mm
08:30 PM 37.6°F3.1°C 35.2°F1.8°C 91% 1.2 mph W1.9 kmh W 10.4 mph16.7 kmh 29.81 in1009.5 mb - 0.10 in2.5 mm 0.22 in5.6 mm
08:45 PM 36.2°F2.3°C 34.1°F1.2°C 92% Calm Calm 3.5 mph5.6 kmh 29.81 in1009.5 mb - 0.08 in2.0 mm 0.23 in5.8 mm
09:00 PM 35.6°F2.0°C 33.5°F0.8°C 92% 1.2 mph SW1.9 kmh SW 3.5 mph5.6 kmh 29.82 in1009.8 mb - 0.05 in1.3 mm 0.23 in5.8 mm
09:15 PM 35.2°F1.8°C 33.4°F0.8°C 93% 1.2 mph W1.9 kmh W 2.3 mph3.7 kmh 29.81 in1009.5 mb - 0.03 in0.8 mm 0.24 in6.1 mm
09:30 PM 34.9°F1.6°C 33.1°F0.6°C 93% Calm Calm 2.3 mph3.7 kmh 29.81 in1009.5 mb - 0.02 in0.5 mm 0.24 in6.1 mm
09:45 PM 34.8°F1.6°C 33.0°F0.6°C 93% Calm Calm -- 29.80 in1009.1 mb - 0.01 in0.3 mm 0.24 in6.1 mm
10:00 PM 34.7°F1.5°C 32.9°F0.5°C 93% Calm Calm -- 29.80 in1009.1 mb - 0.01 in0.3 mm 0.24 in6.1 mm
10:15 PM 34.6°F1.4°C 33.1°F0.6°C 94% Calm Calm -- 29.80 in1009.1 mb - 0.01 in0.3 mm 0.25 in6.4 mm
10:30 PM 34.6°F1.4°C 33.1°F0.6°C 94% Calm Calm 2.3 mph3.7 kmh 29.80 in1009.1 mb - 0.01 in0.3 mm 0.25 in6.4 mm
10:45 PM 34.5°F1.4°C 32.9°F0.5°C 94% Calm Calm 1.2 mph1.9 kmh 29.80 in1009.1 mb - 0.01 in0.3 mm 0.25 in6.4 mm
11:00 PM 34.5°F1.4°C 33.0°F0.6°C 94% Calm Calm 2.3 mph3.7 kmh 29.80 in1009.1 mb - 0.02 in0.5 mm 0.26 in6.6 mm
11:15 PM 34.3°F1.3°C 32.8°F0.4°C 94% Calm Calm 2.3 mph3.7 kmh 29.81 in1009.5 mb - 0.01 in0.3 mm 0.26 in6.6 mm
11:30 PM 34.0°F1.1°C 32.5°F0.3°C 94% Calm Calm 3.5 mph5.6 kmh 29.81 in1009.5 mb - 0.01 in0.3 mm 0.26 in6.6 mm
11:45 PM 33.8°F1.0°C 32.2°F0.1°C 94% Calm Calm 2.3 mph3.7 kmh 29.81 in1009.5 mb - 0.01 in0.3 mm 0.26 in6.6 mm